Aeroporto :
LOGIN :

Iscrizione | Disclaimer

   EN    FR    IT 

 










Sommario :    VFR   VFR Marginale   IFR   IFR Intensivo   IFR Molto Intensivo
Visibilità : 
Base nubi : 
>= 8 km
>= 3000ft
5 / 8 km
1000 / 3000 ft
1500m / 5 km
500 / 1000 ft
800 / 1500m
200 / 500 ft
< 800m
< 200 ft
Simboli :   Temporali  Nebbia  Neve Forte  Precipitazioni Forti  Vento > 20 kt
SIGMETs :   Varie  Temporali  Ghiacco  Turbolenza  Onda orograficha  Ceneri Vulcaniche






- Altitudine del aeroporto : 614 ft
- Codice IATA : CRL


EBCI - Charleroi

ULTIMO METAR :
  • 202150Z 27010G20KT 240V310 9999 FEW012 BKN022 04/01 Q1019 RESHRA NOSIG

METARs OBSOLETI :
  • 202120Z 28011KT 250V320 9999 -SHRA FEW012 BKN022 03/01 Q1018 NOSIG
  • 202050Z 26011KT 230V300 9999 SCT012 BKN022 05/03 Q1017 NOSIG
  • 202020Z 27011G22KT 240V310 9999 SCT012 BKN022 05/03 Q1016 NOSIG
  • 201950Z 27009KT 230V290 9999 SCT012 BKN022 05/03 Q1015 NOSIG
  • 201920Z 27011G21KT 220V310 6000 -RA SCT008 BKN014 05/02 Q1014 TEMPO 250018G28KT
  • 201850Z 28016G26KT 250V320 4500 RA SCT006 BKN012 06/04 Q1013 TEMPO 22020G32KT

TAF TAF EBCI
Valido dal 20 a 18 ore il 22 a 00 ore UTC


201710Z 2018/2124 21015G25KT 9999 SCT015 BKN030
BECMG 2018/2020 28015G25KT
TEMPO 2018/2021 23022G35KT 3000 RA SHRA BKN012TCU
BECMG 2021/2023 26009KT
PROB30
TEMPO 2112/2118 23015G25KT
PROB40 2118/2124 23015G25KT



MetMap, La meteo Aeronautica in un colpo d'occhio ! - Copyright ORBIFLY Dicembre 2007 - Disclaimer

ORBIFLY MET'MAP TEAM :

Programmazione e sviluppo : Alexandra Zaïnal
Concezione : Baudouin d'Aumeries
Aiuto per la programmazione : Marc-Olivier Méhu
Supporto tecnico e logistico : Manuel Goepfert
Aiuto per la traduzione : Arnaldo La Scala

Contatto : metmap@orbifly.com




FONTI E CREDITI :

   NOAA